sensor_id;sensor_type;location;lat;lon;timestamp;pressure;altitude;pressure_sealevel;temperature;humidity
55187;BME280;55457;52.002;5.464;2023-08-21T00:00:29;102162.31;;;24.70;61.16
55187;BME280;55457;52.002;5.464;2023-08-21T00:02:55;102156.84;;;24.70;61.07
55187;BME280;55457;52.002;5.464;2023-08-21T00:05:20;102155.22;;;24.69;61.33
55187;BME280;55457;52.002;5.464;2023-08-21T00:07:45;102162.31;;;24.70;61.23
55187;BME280;55457;52.002;5.464;2023-08-21T00:10:11;102166.94;;;24.70;61.36
55187;BME280;55457;52.002;5.464;2023-08-21T00:12:39;102161.47;;;24.70;61.34
55187;BME280;55457;52.002;5.464;2023-08-21T00:15:05;102159.81;;;24.69;61.37
55187;BME280;55457;52.002;5.464;2023-08-21T00:17:30;102166.94;;;24.70;61.12
55187;BME280;55457;52.002;5.464;2023-08-21T00:19:56;102153.53;;;24.68;61.16
55187;BME280;55457;52.002;5.464;2023-08-21T00:22:21;102165.50;;;24.67;61.10
55187;BME280;55457;52.002;5.464;2023-08-21T00:24:46;102167.97;;;24.69;61.16
55187;BME280;55457;52.002;5.464;2023-08-21T00:27:12;102167.16;;;24.68;61.12
55187;BME280;55457;52.002;5.464;2023-08-21T00:29:37;102170.97;;;24.67;60.96
55187;BME280;55457;52.002;5.464;2023-08-21T00:32:02;102165.50;;;24.67;61.20
55187;BME280;55457;52.002;5.464;2023-08-21T00:34:28;102170.97;;;24.67;61.14
55187;BME280;55457;52.002;5.464;2023-08-21T00:36:53;102163.84;;;24.66;61.03
55187;BME280;55457;52.002;5.464;2023-08-21T00:39:19;102161.13;;;24.66;61.37
55187;BME280;55457;52.002;5.464;2023-08-21T00:41:44;102155.69;;;24.66;61.51
55187;BME280;55457;52.002;5.464;2023-08-21T00:44:09;102166.59;;;24.66;61.19
55187;BME280;55457;52.002;5.464;2023-08-21T00:46:35;102168.47;;;24.66;61.44
55187;BME280;55457;52.002;5.464;2023-08-21T00:49:01;102161.13;;;24.66;61.19
55187;BME280;55457;52.002;5.464;2023-08-21T00:51:27;102163.84;;;24.66;61.14
55187;BME280;55457;52.002;5.464;2023-08-21T00:53:53;102161.13;;;24.66;61.21
55187;BME280;55457;52.002;5.464;2023-08-21T00:56:19;102161.38;;;24.65;61.46
55187;BME280;55457;52.002;5.464;2023-08-21T00:58:44;102148.56;;;24.65;61.26
55187;BME280;55457;52.002;5.464;2023-08-21T01:01:10;102147.75;;;24.65;61.23
55187;BME280;55457;52.002;5.464;2023-08-21T01:03:37;102152.38;;;24.64;61.16
55187;BME280;55457;52.002;5.464;2023-08-21T01:06:03;102153.19;;;24.65;61.15
55187;BME280;55457;52.002;5.464;2023-08-21T01:08:38;102145.25;;;24.63;61.19
55187;BME280;55457;52.002;5.464;2023-08-21T01:11:14;102141.47;;;24.64;61.12
55187;BME280;55457;52.002;5.464;2023-08-21T01:16:11;102146.06;;;24.64;60.98
55187;BME280;55457;52.002;5.464;2023-08-21T01:18:39;102145.03;;;24.65;61.30
55187;BME280;55457;52.002;5.464;2023-08-21T01:21:05;102150.69;;;24.63;61.25
55187;BME280;55457;52.002;5.464;2023-08-21T01:23:41;102145.25;;;24.63;61.12
55187;BME280;55457;52.002;5.464;2023-08-21T01:26:09;102149.88;;;24.63;61.15
55187;BME280;55457;52.002;5.464;2023-08-21T01:28:35;102146.94;;;24.64;61.03
55187;BME280;55457;52.002;5.464;2023-08-21T01:31:22;102144.41;;;24.63;60.94
55187;BME280;55457;52.002;5.464;2023-08-21T01:33:51;102155.31;;;24.63;60.91
55187;BME280;55457;52.002;5.464;2023-08-21T01:36:18;102161.59;;;24.63;61.01
55187;BME280;55457;52.002;5.464;2023-08-21T01:38:44;102154.50;;;24.62;60.90
55187;BME280;55457;52.002;5.464;2023-08-21T01:41:09;102157.22;;;24.62;60.85
55187;BME280;55457;52.002;5.464;2023-08-21T01:43:35;102153.66;;;24.62;60.98
55187;BME280;55457;52.002;5.464;2023-08-21T01:46:01;102158.28;;;24.61;60.93
55187;BME280;55457;52.002;5.464;2023-08-21T01:48:28;102161.03;;;24.61;61.02
55187;BME280;55457;52.002;5.464;2023-08-21T01:50:53;102152.03;;;24.61;61.02
55187;BME280;55457;52.002;5.464;2023-08-21T01:53:18;102154.75;;;24.61;60.93
55187;BME280;55457;52.002;5.464;2023-08-21T01:55:44;102150.38;;;24.60;60.95
55187;BME280;55457;52.002;5.464;2023-08-21T01:58:09;102151.19;;;24.60;60.95
55187;BME280;55457;52.002;5.464;2023-08-21T02:00:35;102151.19;;;24.60;60.67
55187;BME280;55457;52.002;5.464;2023-08-21T02:03:00;102148.69;;;24.59;60.86
55187;BME280;55457;52.002;5.464;2023-08-21T02:05:25;102151.41;;;24.59;60.79
55187;BME280;55457;52.002;5.464;2023-08-21T02:07:51;102148.69;;;24.59;60.80
55187;BME280;55457;52.002;5.464;2023-08-21T02:10:16;102142.41;;;24.58;60.94
55187;BME280;55457;52.002;5.464;2023-08-21T02:12:41;102148.69;;;24.59;60.95
55187;BME280;55457;52.002;5.464;2023-08-21T02:15:07;102154.13;;;24.59;60.99
55187;BME280;55457;52.002;5.464;2023-08-21T02:17:33;102163.16;;;24.59;60.83
55187;BME280;55457;52.002;5.464;2023-08-21T02:19:58;102160.44;;;24.59;60.79
55187;BME280;55457;52.002;5.464;2023-08-21T02:22:23;102157.72;;;24.59;60.73
55187;BME280;55457;52.002;5.464;2023-08-21T02:24:49;102148.69;;;24.59;60.73
55187;BME280;55457;52.002;5.464;2023-08-21T02:27:14;102159.84;;;24.57;60.68
55187;BME280;55457;52.002;5.464;2023-08-21T02:29:40;102158.75;;;24.58;60.83
55187;BME280;55457;52.002;5.464;2023-08-21T02:32:05;102162.31;;;24.59;60.92
55187;BME280;55457;52.002;5.464;2023-08-21T02:34:31;102156.28;;;24.57;61.00
55187;BME280;55457;52.002;5.464;2023-08-21T02:36:56;102157.13;;;24.57;61.23
55187;BME280;55457;52.002;5.464;2023-08-21T02:39:21;102150.00;;;24.56;61.18
55187;BME280;55457;52.002;5.464;2023-08-21T02:41:47;102151.66;;;24.57;61.36
55187;BME280;55457;52.002;5.464;2023-08-21T02:44:12;102150.84;;;24.57;61.35
55187;BME280;55457;52.002;5.464;2023-08-21T02:46:38;102146.22;;;24.57;61.19
55187;BME280;55457;52.002;5.464;2023-08-21T02:49:03;102157.13;;;24.57;61.23
55187;BME280;55457;52.002;5.464;2023-08-21T02:51:28;102154.38;;;24.57;61.17
55187;BME280;55457;52.002;5.464;2023-08-21T02:53:54;102154.38;;;24.57;61.24
55187;BME280;55457;52.002;5.464;2023-08-21T02:56:19;102149.19;;;24.56;61.25
55187;BME280;55457;52.002;5.464;2023-08-21T02:58:45;102161.75;;;24.57;61.15
55187;BME280;55457;52.002;5.464;2023-08-21T03:01:10;102158.19;;;24.56;61.09
55187;BME280;55457;52.002;5.464;2023-08-21T03:03:35;102156.53;;;24.55;61.16
55187;BME280;55457;52.002;5.464;2023-08-21T03:06:01;102161.97;;;24.55;61.06
55187;BME280;55457;52.002;5.464;2023-08-21T03:08:27;102166.38;;;24.56;60.71
55187;BME280;55457;52.002;5.464;2023-08-21T03:10:52;102159.25;;;24.55;61.04
55187;BME280;55457;52.002;5.464;2023-08-21T03:13:17;102163.06;;;24.54;60.94
55187;BME280;55457;52.002;5.464;2023-08-21T03:15:43;102159.25;;;24.55;61.04
55187;BME280;55457;52.002;5.464;2023-08-21T03:18:08;102166.63;;;24.55;60.80
55187;BME280;55457;52.002;5.464;2023-08-21T03:20:34;102168.50;;;24.54;60.80
55187;BME280;55457;52.002;5.464;2023-08-21T03:22:59;102168.50;;;24.54;60.70
55187;BME280;55457;52.002;5.464;2023-08-21T03:25:24;102155.09;;;24.53;60.76
55187;BME280;55457;52.002;5.464;2023-08-21T03:27:50;102161.38;;;24.53;60.88
55187;BME280;55457;52.002;5.464;2023-08-21T03:30:15;102157.63;;;24.54;60.88
55187;BME280;55457;52.002;5.464;2023-08-21T03:32:41;102163.28;;;24.53;60.95
55187;BME280;55457;52.002;5.464;2023-08-21T03:35:06;102161.38;;;24.53;60.78
55187;BME280;55457;52.002;5.464;2023-08-21T03:37:32;102154.28;;;24.52;60.76
55187;BME280;55457;52.002;5.464;2023-08-21T03:39:57;102155.09;;;24.53;60.74
55187;BME280;55457;52.002;5.464;2023-08-21T03:42:23;102150.97;;;24.50;60.52
55187;BME280;55457;52.002;5.464;2023-08-21T03:44:48;102150.97;;;24.50;60.56
55187;BME280;55457;52.002;5.464;2023-08-21T03:47:16;102147.19;;;24.51;60.74
55187;BME280;55457;52.002;5.464;2023-08-21T03:49:41;102148.81;;;24.52;60.50
55187;BME280;55457;52.002;5.464;2023-08-21T03:52:07;102148.81;;;24.52;60.61
55187;BME280;55457;52.002;5.464;2023-08-21T03:54:32;102146.34;;;24.51;60.67
55187;BME280;55457;52.002;5.464;2023-08-21T03:56:57;102149.91;;;24.51;60.81
55187;BME280;55457;52.002;5.464;2023-08-21T03:59:23;102143.63;;;24.51;60.36
55187;BME280;55457;52.002;5.464;2023-08-21T04:01:49;102136.75;;;24.48;60.43
55187;BME280;55457;52.002;5.464;2023-08-21T04:04:14;102143.63;;;24.51;60.28
55187;BME280;55457;52.002;5.464;2023-08-21T04:06:40;102148.50;;;24.49;60.42
55187;BME280;55457;52.002;5.464;2023-08-21T04:09:05;102150.97;;;24.50;60.30
55187;BME280;55457;52.002;5.464;2023-08-21T04:11:32;102161.06;;;24.50;60.33
55187;BME280;55457;52.002;5.464;2023-08-21T04:13:58;102166.50;;;24.50;60.30
55187;BME280;55457;52.002;5.464;2023-08-21T04:16:24;102154.78;;;24.49;60.46
55187;BME280;55457;52.002;5.464;2023-08-21T04:18:49;102156.69;;;24.49;60.31
55187;BME280;55457;52.002;5.464;2023-08-21T04:21:15;102161.28;;;24.48;60.29
55187;BME280;55457;52.002;5.464;2023-08-21T04:23:40;102161.28;;;24.48;60.58
55187;BME280;55457;52.002;5.464;2023-08-21T04:26:06;102167.56;;;24.49;60.27
55187;BME280;55457;52.002;5.464;2023-08-21T04:28:33;102169.44;;;24.48;60.41
55187;BME280;55457;52.002;5.464;2023-08-21T04:30:59;102168.41;;;24.49;60.14
55187;BME280;55457;52.002;5.464;2023-08-21T04:33:25;102163.16;;;24.47;60.21
55187;BME280;55457;52.002;5.464;2023-08-21T04:35:51;102161.28;;;24.48;60.02
55187;BME280;55457;52.002;5.464;2023-08-21T04:38:17;102159.41;;;24.49;60.04
55187;BME280;55457;52.002;5.464;2023-08-21T04:40:42;102162.34;;;24.47;60.23
55187;BME280;55457;52.002;5.464;2023-08-21T04:43:07;102162.34;;;24.47;60.22
55187;BME280;55457;52.002;5.464;2023-08-21T04:45:33;102168.03;;;24.45;60.22
55187;BME280;55457;52.002;5.464;2023-08-21T04:47:58;102169.69;;;24.46;60.38
55187;BME280;55457;52.002;5.464;2023-08-21T04:50:23;102168.63;;;24.47;60.22
55187;BME280;55457;52.002;5.464;2023-08-21T04:52:49;102164.50;;;24.45;60.36
55187;BME280;55457;52.002;5.464;2023-08-21T04:55:15;102171.59;;;24.46;60.35
55187;BME280;55457;52.002;5.464;2023-08-21T04:57:41;102176.22;;;24.45;60.24
55187;BME280;55457;52.002;5.464;2023-08-21T05:00:07;102177.03;;;24.46;60.22
55187;BME280;55457;52.002;5.464;2023-08-21T05:02:33;102175.97;;;24.47;60.22
55187;BME280;55457;52.002;5.464;2023-08-21T05:04:59;102164.50;;;24.45;60.44
55187;BME280;55457;52.002;5.464;2023-08-21T05:07:24;102169.94;;;24.45;60.16
55187;BME280;55457;52.002;5.464;2023-08-21T05:09:51;102167.22;;;24.45;60.36
55187;BME280;55457;52.002;5.464;2023-08-21T05:12:17;102169.94;;;24.45;60.19
55187;BME280;55457;52.002;5.464;2023-08-21T05:14:42;102175.38;;;24.45;60.04
55187;BME280;55457;52.002;5.464;2023-08-21T05:17:08;102167.47;;;24.43;60.08
55187;BME280;55457;52.002;5.464;2023-08-21T05:19:33;102168.03;;;24.45;59.98
55187;BME280;55457;52.002;5.464;2023-08-21T05:21:58;102169.13;;;24.44;59.97
55187;BME280;55457;52.002;5.464;2023-08-21T05:24:24;102175.38;;;24.45;59.97
55187;BME280;55457;52.002;5.464;2023-08-21T05:26:49;102177.03;;;24.46;60.08
55187;BME280;55457;52.002;5.464;2023-08-21T05:29:15;102182.75;;;24.44;59.99
55187;BME280;55457;52.002;5.464;2023-08-21T05:31:40;102181.91;;;24.44;60.08
55187;BME280;55457;52.002;5.464;2023-08-21T05:34:06;102186.28;;;24.45;60.16
55187;BME280;55457;52.002;5.464;2023-08-21T05:36:31;102189.00;;;24.45;60.49
55187;BME280;55457;52.002;5.464;2023-08-21T05:38:57;102179.19;;;24.44;60.18
55187;BME280;55457;52.002;5.464;2023-08-21T05:41:22;102180.00;;;24.44;60.27
55187;BME280;55457;52.002;5.464;2023-08-21T05:43:47;102186.28;;;24.45;60.17
55187;BME280;55457;52.002;5.464;2023-08-21T05:46:14;102179.19;;;24.44;60.06
55187;BME280;55457;52.002;5.464;2023-08-21T05:48:39;102179.19;;;24.44;59.91
55187;BME280;55457;52.002;5.464;2023-08-21T05:51:05;102184.41;;;24.45;60.72
55187;BME280;55457;52.002;5.464;2023-08-21T05:53:30;102186.28;;;24.45;61.79
55187;BME280;55457;52.002;5.464;2023-08-21T05:55:55;102186.28;;;24.45;61.67
55187;BME280;55457;52.002;5.464;2023-08-21T05:58:21;102189.84;;;24.45;62.33
55187;BME280;55457;52.002;5.464;2023-08-21T06:00:48;102192.00;;;24.43;61.89
55187;BME280;55457;52.002;5.464;2023-08-21T06:03:13;102192.81;;;24.44;61.64
55187;BME280;55457;52.002;5.464;2023-08-21T06:05:39;102198.25;;;24.44;61.74
55187;BME280;55457;52.002;5.464;2023-08-21T06:08:04;102181.09;;;24.43;61.83
55187;BME280;55457;52.002;5.464;2023-08-21T06:10:31;102182.75;;;24.44;61.66
55187;BME280;55457;52.002;5.464;2023-08-21T06:12:56;102184.63;;;24.44;62.24
55187;BME280;55457;52.002;5.464;2023-08-21T06:15:22;102184.63;;;24.44;61.91
55187;BME280;55457;52.002;5.464;2023-08-21T06:17:47;102190.09;;;24.44;61.74
55187;BME280;55457;52.002;5.464;2023-08-21T06:20:13;102188.41;;;24.43;61.40
55187;BME280;55457;52.002;5.464;2023-08-21T06:22:39;102188.41;;;24.43;61.61
55187;BME280;55457;52.002;5.464;2023-08-21T06:25:05;102195.75;;;24.42;61.75
55187;BME280;55457;52.002;5.464;2023-08-21T06:27:31;102203.09;;;24.42;61.82
55187;BME280;55457;52.002;5.464;2023-08-21T06:29:56;102199.31;;;24.43;62.20
55187;BME280;55457;52.002;5.464;2023-08-21T06:32:21;102198.47;;;24.42;62.09
55187;BME280;55457;52.002;5.464;2023-08-21T06:34:47;102194.94;;;24.42;61.68
55187;BME280;55457;52.002;5.464;2023-08-21T06:37:12;102192.22;;;24.42;61.85
55187;BME280;55457;52.002;5.464;2023-08-21T06:39:38;102203.94;;;24.42;62.03
55187;BME280;55457;52.002;5.464;2023-08-21T06:42:04;102204.75;;;24.43;62.04
55187;BME280;55457;52.002;5.464;2023-08-21T06:44:29;102209.16;;;24.44;61.95
55187;BME280;55457;52.002;5.464;2023-08-21T06:46:55;102202.88;;;24.43;62.09
55187;BME280;55457;52.002;5.464;2023-08-21T06:49:20;102208.09;;;24.45;61.87
55187;BME280;55457;52.002;5.464;2023-08-21T06:51:45;102204.53;;;24.44;62.27
55187;BME280;55457;52.002;5.464;2023-08-21T06:54:10;102200.50;;;24.47;61.83
55187;BME280;55457;52.002;5.464;2023-08-21T06:56:36;102200.50;;;24.47;62.07
55187;BME280;55457;52.002;5.464;2023-08-21T06:59:01;102203.22;;;24.47;62.09
55187;BME280;55457;52.002;5.464;2023-08-21T07:01:27;102201.31;;;24.47;61.91
55187;BME280;55457;52.002;5.464;2023-08-21T07:03:53;102205.94;;;24.47;61.93
55187;BME280;55457;52.002;5.464;2023-08-21T07:06:19;102206.78;;;24.47;62.01
55187;BME280;55457;52.002;5.464;2023-08-21T07:08:44;102200.03;;;24.50;61.79
55187;BME280;55457;52.002;5.464;2023-08-21T07:11:10;102192.94;;;24.49;62.14
55187;BME280;55457;52.002;5.464;2023-08-21T07:13:37;102206.31;;;24.51;61.98
55187;BME280;55457;52.002;5.464;2023-08-21T07:16:02;102194.59;;;24.50;61.74
55187;BME280;55457;52.002;5.464;2023-08-21T07:18:32;102206.88;;;24.53;61.55
55187;BME280;55457;52.002;5.464;2023-08-21T07:20:58;102207.50;;;24.55;61.49
55187;BME280;55457;52.002;5.464;2023-08-21T07:23:23;102211.03;;;24.55;61.59
55187;BME280;55457;52.002;5.464;2023-08-21T07:25:48;102209.16;;;24.56;61.56
55187;BME280;55457;52.002;5.464;2023-08-21T07:28:15;102218.97;;;24.57;61.51
55187;BME280;55457;52.002;5.464;2023-08-21T07:30:41;102211.63;;;24.57;61.65
55187;BME280;55457;52.002;5.464;2023-08-21T07:33:06;102214.34;;;24.57;61.57
55187;BME280;55457;52.002;5.464;2023-08-21T07:35:32;102216.25;;;24.57;61.69
55187;BME280;55457;52.002;5.464;2023-08-21T07:37:58;102217.91;;;24.58;61.86
55187;BME280;55457;52.002;5.464;2023-08-21T07:40:23;102221.69;;;24.57;61.98
55187;BME280;55457;52.002;5.464;2023-08-21T07:42:49;102218.97;;;24.57;62.25
55187;BME280;55457;52.002;5.464;2023-08-21T07:45:15;102211.88;;;24.56;61.72
55187;BME280;55457;52.002;5.464;2023-08-21T07:47:40;102221.69;;;24.57;61.98
55187;BME280;55457;52.002;5.464;2023-08-21T07:50:06;102216.81;;;24.59;61.67
55187;BME280;55457;52.002;5.464;2023-08-21T07:52:32;102232.13;;;24.60;61.64
55187;BME280;55457;52.002;5.464;2023-08-21T07:54:58;102225.38;;;24.62;61.81
55187;BME280;55457;52.002;5.464;2023-08-21T07:57:26;102227.63;;;24.65;61.63
55187;BME280;55457;52.002;5.464;2023-08-21T07:59:51;102228.44;;;24.66;61.32
55187;BME280;55457;52.002;5.464;2023-08-21T08:02:16;102231.19;;;24.66;61.19
55187;BME280;55457;52.002;5.464;2023-08-21T08:04:42;102232.00;;;24.66;61.10
55187;BME280;55457;52.002;5.464;2023-08-21T08:07:08;102226.09;;;24.69;61.08
55187;BME280;55457;52.002;5.464;2023-08-21T08:09:33;102223.94;;;24.71;61.08
55187;BME280;55457;52.002;5.464;2023-08-21T08:11:59;102220.13;;;24.72;61.24
55187;BME280;55457;52.002;5.464;2023-08-21T08:14:24;102225.59;;;24.72;61.39
55187;BME280;55457;52.002;5.464;2023-08-21T08:16:50;102228.06;;;24.74;61.15
55187;BME280;55457;52.002;5.464;2023-08-21T08:19:15;102228.91;;;24.75;61.31
55187;BME280;55457;52.002;5.464;2023-08-21T08:21:41;102230.78;;;24.74;61.25
55187;BME280;55457;52.002;5.464;2023-08-21T08:24:06;102240.88;;;24.73;61.47
55187;BME280;55457;52.002;5.464;2023-08-21T08:26:32;102241.47;;;24.76;61.36
55187;BME280;55457;52.002;5.464;2023-08-21T08:28:57;102232.69;;;24.73;61.52
55187;BME280;55457;52.002;5.464;2023-08-21T08:31:22;102229.97;;;24.73;61.59
55187;BME280;55457;52.002;5.464;2023-08-21T08:33:49;102220.75;;;24.75;61.66
55187;BME280;55457;52.002;5.464;2023-08-21T08:36:15;102225.59;;;24.72;61.70
55187;BME280;55457;52.002;5.464;2023-08-21T08:38:40;102234.69;;;24.78;61.73
55187;BME280;55457;52.002;5.464;2023-08-21T08:41:11;102232.81;;;24.79;61.49
55187;BME280;55457;52.002;5.464;2023-08-21T08:43:39;102242.88;;;24.78;61.64
55187;BME280;55457;52.002;5.464;2023-08-21T08:46:06;102246.44;;;24.79;61.60
55187;BME280;55457;52.002;5.464;2023-08-21T08:48:34;102246.44;;;24.79;61.86
55187;BME280;55457;52.002;5.464;2023-08-21T08:50:59;102250.22;;;24.78;61.88
55187;BME280;55457;52.002;5.464;2023-08-21T08:53:34;102248.34;;;24.78;61.86
55187;BME280;55457;52.002;5.464;2023-08-21T08:56:01;102242.66;;;24.80;62.01
55187;BME280;55457;52.002;5.464;2023-08-21T08:58:26;102240.50;;;24.82;61.86
55187;BME280;55457;52.002;5.464;2023-08-21T09:00:52;102224.97;;;24.82;61.77
55187;BME280;55457;52.002;5.464;2023-08-21T09:03:17;102231.84;;;24.85;61.90
55187;BME280;55457;52.002;5.464;2023-08-21T09:05:42;102229.34;;;24.83;61.76
55187;BME280;55457;52.002;5.464;2023-08-21T09:10:34;102226.16;;;24.86;61.88
55187;BME280;55457;52.002;5.464;2023-08-21T09:13:01;102229.72;;;24.87;61.65
55187;BME280;55457;52.002;5.464;2023-08-21T09:15:30;102233.53;;;24.86;61.88
55187;BME280;55457;52.002;5.464;2023-08-21T09:17:55;102225.81;;;24.83;61.67
55187;BME280;55457;52.002;5.464;2023-08-21T09:20:21;102232.91;;;24.84;61.72
55187;BME280;55457;52.002;5.464;2023-08-21T09:22:53;102228.53;;;24.83;61.76
55187;BME280;55457;52.002;5.464;2023-08-21T09:25:20;102224.72;;;24.84;61.88
55187;BME280;55457;52.002;5.464;2023-08-21T09:27:45;102223.66;;;24.85;61.79
55187;BME280;55457;52.002;5.464;2023-08-21T09:30:11;102230.19;;;24.84;61.93
55187;BME280;55457;52.002;5.464;2023-08-21T09:32:57;102219.53;;;24.82;61.66
55187;BME280;55457;52.002;5.464;2023-08-21T09:35:25;102221.19;;;24.83;61.92
55187;BME280;55457;52.002;5.464;2023-08-21T09:37:51;102223.06;;;24.83;62.06
55187;BME280;55457;52.002;5.464;2023-08-21T09:40:19;102223.66;;;24.85;62.03
55187;BME280;55457;52.002;5.464;2023-08-21T09:42:44;102222.00;;;24.84;62.07
55187;BME280;55457;52.002;5.464;2023-08-21T09:45:10;102223.66;;;24.85;61.83
55187;BME280;55457;52.002;5.464;2023-08-21T09:47:36;102214.44;;;24.86;61.89
55187;BME280;55457;52.002;5.464;2023-08-21T09:50:03;102214.44;;;24.86;61.90
55187;BME280;55457;52.002;5.464;2023-08-21T09:52:30;102211.72;;;24.86;62.10
55187;BME280;55457;52.002;5.464;2023-08-21T09:54:56;102208.97;;;24.86;61.97
55187;BME280;55457;52.002;5.464;2023-08-21T09:57:22;102216.09;;;24.87;61.87
55187;BME280;55457;52.002;5.464;2023-08-21T09:59:51;102215.00;;;24.88;61.81
55187;BME280;55457;52.002;5.464;2023-08-21T10:02:17;102216.09;;;24.87;62.09
55187;BME280;55457;52.002;5.464;2023-08-21T10:04:45;102210.63;;;24.87;62.08
55187;BME280;55457;52.002;5.464;2023-08-21T10:07:10;102213.09;;;24.88;62.11
55187;BME280;55457;52.002;5.464;2023-08-21T10:09:40;102214.75;;;24.89;62.06
55187;BME280;55457;52.002;5.464;2023-08-21T10:12:09;102209.31;;;24.89;61.92
55187;BME280;55457;52.002;5.464;2023-08-21T10:14:35;102209.31;;;24.89;61.96
55187;BME280;55457;52.002;5.464;2023-08-21T10:17:01;102205.53;;;24.90;62.14
55187;BME280;55457;52.002;5.464;2023-08-21T10:19:33;102195.44;;;24.91;61.96
55187;BME280;55457;52.002;5.464;2023-08-21T10:21:58;102202.81;;;24.90;62.18
55187;BME280;55457;52.002;5.464;2023-08-21T10:24:34;102202.56;;;24.92;62.18
55187;BME280;55457;52.002;5.464;2023-08-21T10:27:00;102200.66;;;24.92;62.05
55187;BME280;55457;52.002;5.464;2023-08-21T10:29:26;102191.66;;;24.92;61.91
55187;BME280;55457;52.002;5.464;2023-08-21T10:31:59;102204.19;;;24.93;62.08
55187;BME280;55457;52.002;5.464;2023-08-21T10:34:35;102210.47;;;24.93;61.96
55187;BME280;55457;52.002;5.464;2023-08-21T10:39:35;102202.56;;;24.92;62.12
55187;BME280;55457;52.002;5.464;2023-08-21T10:42:05;102204.78;;;24.95;61.90
55187;BME280;55457;52.002;5.464;2023-08-21T10:47:22;102216.75;;;24.94;62.13
55187;BME280;55457;52.002;5.464;2023-08-21T10:49:56;102210.22;;;24.95;62.03
55187;BME280;55457;52.002;5.464;2023-08-21T10:52:44;102205.84;;;24.94;61.95
55187;BME280;55457;52.002;5.464;2023-08-21T10:55:11;102192.00;;;24.95;62.12
55187;BME280;55457;52.002;5.464;2023-08-21T10:57:38;102197.19;;;24.97;62.08
55187;BME280;55457;52.002;5.464;2023-08-21T11:00:07;102190.69;;;24.98;62.05
55187;BME280;55457;52.002;5.464;2023-08-21T11:02:41;102207.50;;;24.95;62.31
55187;BME280;55457;52.002;5.464;2023-08-21T11:05:07;102196.59;;;24.95;62.25
55187;BME280;55457;52.002;5.464;2023-08-21T11:07:37;102190.69;;;24.98;62.12
55187;BME280;55457;52.002;5.464;2023-08-21T11:10:03;102196.94;;;24.98;62.29
55187;BME280;55457;52.002;5.464;2023-08-21T11:12:30;102197.78;;;24.99;61.97
55187;BME280;55457;52.002;5.464;2023-08-21T11:14:55;102197.78;;;24.99;62.25
55187;BME280;55457;52.002;5.464;2023-08-21T11:17:21;102187.69;;;24.99;62.21
55187;BME280;55457;52.002;5.464;2023-08-21T11:19:48;102191.50;;;24.98;61.84
55187;BME280;55457;52.002;5.464;2023-08-21T11:22:15;102195.66;;;25.01;61.90
55187;BME280;55457;52.002;5.464;2023-08-21T11:24:48;102194.84;;;25.01;61.89
55187;BME280;55457;52.002;5.464;2023-08-21T11:27:15;102183.66;;;25.02;62.08
55187;BME280;55457;52.002;5.464;2023-08-21T11:29:42;102184.75;;;25.01;61.98
55187;BME280;55457;52.002;5.464;2023-08-21T11:34:34;102186.41;;;25.02;62.07
55187;BME280;55457;52.002;5.464;2023-08-21T11:37:00;102191.03;;;25.02;62.10
55187;BME280;55457;52.002;5.464;2023-08-21T11:39:26;102191.84;;;25.02;62.08
55187;BME280;55457;52.002;5.464;2023-08-21T11:41:58;102197.31;;;25.02;61.87
55187;BME280;55457;52.002;5.464;2023-08-21T11:44:24;102201.13;;;25.01;61.88
55187;BME280;55457;52.002;5.464;2023-08-21T11:46:52;102185.78;;;25.00;61.90
55187;BME280;55457;52.002;5.464;2023-08-21T11:49:20;102184.50;;;25.03;62.05
55187;BME280;55457;52.002;5.464;2023-08-21T11:51:47;102185.31;;;25.03;61.81
55187;BME280;55457;52.002;5.464;2023-08-21T11:54:13;102171.94;;;25.02;61.77
55187;BME280;55457;52.002;5.464;2023-08-21T11:56:38;102177.38;;;25.02;62.09
55187;BME280;55457;52.002;5.464;2023-08-21T11:59:04;102176.31;;;25.03;61.75
55187;BME280;55457;52.002;5.464;2023-08-21T12:01:33;102173.84;;;25.01;61.81
55187;BME280;55457;52.002;5.464;2023-08-21T12:03:59;102177.13;;;25.03;62.00
55187;BME280;55457;52.002;5.464;2023-08-21T12:06:25;102180.69;;;25.04;61.79
55187;BME280;55457;52.002;5.464;2023-08-21T12:08:51;102176.88;;;25.05;62.04
55187;BME280;55457;52.002;5.464;2023-08-21T12:11:16;102180.44;;;25.05;61.88
55187;BME280;55457;52.002;5.464;2023-08-21T12:13:42;102168.50;;;25.06;62.19
55187;BME280;55457;52.002;5.464;2023-08-21T12:16:08;102166.59;;;25.07;62.13
55187;BME280;55457;52.002;5.464;2023-08-21T12:18:33;102166.59;;;25.07;62.14
55187;BME280;55457;52.002;5.464;2023-08-21T12:20:58;102168.25;;;25.08;62.01
55187;BME280;55457;52.002;5.464;2023-08-21T12:23:24;102165.28;;;25.09;62.33
55187;BME280;55457;52.002;5.464;2023-08-21T12:25:49;102165.28;;;25.09;62.08
55187;BME280;55457;52.002;5.464;2023-08-21T12:28:15;102160.44;;;25.11;62.10
55187;BME280;55457;52.002;5.464;2023-08-21T12:30:40;102170.25;;;25.12;62.24
55187;BME280;55457;52.002;5.464;2023-08-21T12:33:06;102165.38;;;25.14;61.94
55187;BME280;55457;52.002;5.464;2023-08-21T12:35:31;102158.84;;;25.15;62.21
55187;BME280;55457;52.002;5.464;2023-08-21T12:37:57;102153.38;;;25.15;62.06
55187;BME280;55457;52.002;5.464;2023-08-21T12:40:30;102151.25;;;25.17;62.11
55187;BME280;55457;52.002;5.464;2023-08-21T12:42:56;102151.00;;;25.19;61.96
55187;BME280;55457;52.002;5.464;2023-08-21T12:45:21;102146.97;;;25.21;62.04
55187;BME280;55457;52.002;5.464;2023-08-21T12:47:47;102146.97;;;25.21;61.68
55187;BME280;55457;52.002;5.464;2023-08-21T12:50:12;102149.47;;;25.23;61.74
55187;BME280;55457;52.002;5.464;2023-08-21T12:52:38;102146.97;;;25.21;61.78
55187;BME280;55457;52.002;5.464;2023-08-21T12:55:04;102156.09;;;25.27;61.88
55187;BME280;55457;52.002;5.464;2023-08-21T12:57:31;102156.91;;;25.28;61.42